sensor_id;sensor_type;location;lat;lon;timestamp;pressure;altitude;pressure_sealevel;temperature;humidity
21633;BME280;48765;51.568;8.840;2022-11-14T00:02:21;98609.50;;;4.36;100.00
21633;BME280;48765;51.568;8.840;2022-11-14T00:04:48;98610.66;;;4.51;100.00
21633;BME280;48765;51.568;8.840;2022-11-14T00:07:15;98601.44;;;4.26;100.00
21633;BME280;48765;51.568;8.840;2022-11-14T00:09:43;98602.97;;;4.15;100.00
21633;BME280;48765;51.568;8.840;2022-11-14T00:12:10;98600.63;;;4.28;100.00
21633;BME280;48765;51.568;8.840;2022-11-14T00:14:37;98609.31;;;4.27;100.00
21633;BME280;48765;51.568;8.840;2022-11-14T00:17:04;98603.53;;;4.01;100.00
21633;BME280;48765;51.568;8.840;2022-11-14T00:19:32;98599.44;;;4.14;100.00
21633;BME280;48765;51.568;8.840;2022-11-14T00:21:59;98608.03;;;4.07;100.00
21633;BME280;48765;51.568;8.840;2022-11-14T00:24:26;98609.69;;;4.02;100.00
21633;BME280;48765;51.568;8.840;2022-11-14T00:26:52;98604.53;;;4.08;100.00
21633;BME280;48765;51.568;8.840;2022-11-14T00:29:19;98587.84;;;4.04;100.00
21633;BME280;48765;51.568;8.840;2022-11-14T00:31:46;98596.19;;;3.85;100.00
21633;BME280;48765;51.568;8.840;2022-11-14T00:34:13;98592.16;;;4.01;100.00
21633;BME280;48765;51.568;8.840;2022-11-14T00:36:41;98594.59;;;3.92;100.00
21633;BME280;48765;51.568;8.840;2022-11-14T00:39:09;98594.50;;;3.89;100.00
21633;BME280;48765;51.568;8.840;2022-11-14T00:41:37;98592.63;;;3.81;100.00
21633;BME280;48765;51.568;8.840;2022-11-14T00:44:04;98591.81;;;3.85;100.00
21633;BME280;48765;51.568;8.840;2022-11-14T00:46:31;98583.03;;;3.82;100.00
21633;BME280;48765;51.568;8.840;2022-11-14T00:48:58;98580.28;;;3.77;100.00
21633;BME280;48765;51.568;8.840;2022-11-14T00:51:25;98578.69;;;3.45;100.00
21633;BME280;48765;51.568;8.840;2022-11-14T00:53:53;98577.47;;;3.30;100.00
21633;BME280;48765;51.568;8.840;2022-11-14T00:56:19;98578.03;;;3.17;100.00
21633;BME280;48765;51.568;8.840;2022-11-14T00:58:46;98577.66;;;3.02;100.00
21633;BME280;48765;51.568;8.840;2022-11-14T01:01:13;98562.06;;;3.08;100.00
21633;BME280;48765;51.568;8.840;2022-11-14T01:03:40;98567.88;;;2.96;100.00
21633;BME280;48765;51.568;8.840;2022-11-14T01:12:14;98552.91;;;2.91;100.00
21633;BME280;48765;51.568;8.840;2022-11-14T01:14:41;98550.16;;;2.85;100.00
21633;BME280;48765;51.568;8.840;2022-11-14T01:17:08;98548.91;;;2.70;100.00
21633;BME280;48765;51.568;8.840;2022-11-14T01:19:35;98540.44;;;2.80;100.00
21633;BME280;48765;51.568;8.840;2022-11-14T01:22:02;98540.19;;;2.70;100.00
21633;BME280;48765;51.568;8.840;2022-11-14T01:24:30;98541.97;;;2.72;100.00
21633;BME280;48765;51.568;8.840;2022-11-14T01:26:57;98534.97;;;2.71;100.00
21633;BME280;48765;51.568;8.840;2022-11-14T01:29:25;98527.84;;;2.66;100.00
21633;BME280;48765;51.568;8.840;2022-11-14T01:31:52;98522.25;;;2.52;100.00
21633;BME280;48765;51.568;8.840;2022-11-14T01:34:19;98515.13;;;2.45;100.00
21633;BME280;48765;51.568;8.840;2022-11-14T01:36:46;98515.75;;;2.36;100.00
21633;BME280;48765;51.568;8.840;2022-11-14T01:39:12;98512.31;;;2.39;100.00
21633;BME280;48765;51.568;8.840;2022-11-14T01:41:39;98511.47;;;2.40;100.00
21633;BME280;48765;51.568;8.840;2022-11-14T01:44:10;98514.56;;;2.58;100.00
21633;BME280;48765;51.568;8.840;2022-11-14T01:46:39;98512.03;;;2.61;100.00
21633;BME280;48765;51.568;8.840;2022-11-14T01:49:10;98507.69;;;2.63;100.00
21633;BME280;48765;51.568;8.840;2022-11-14T01:51:40;98512.78;;;2.57;100.00
21633;BME280;48765;51.568;8.840;2022-11-14T01:54:10;98506.75;;;2.60;100.00
21633;BME280;48765;51.568;8.840;2022-11-14T01:56:39;98504.66;;;2.81;100.00
21633;BME280;48765;51.568;8.840;2022-11-14T01:59:09;98502.78;;;2.75;100.00
21633;BME280;48765;51.568;8.840;2022-11-14T02:01:40;98501.31;;;2.52;100.00
21633;BME280;48765;51.568;8.840;2022-11-14T02:04:09;98498.84;;;2.23;100.00
21633;BME280;48765;51.568;8.840;2022-11-14T02:06:36;98494.84;;;2.38;100.00
21633;BME280;48765;51.568;8.840;2022-11-14T02:09:04;98485.28;;;2.40;100.00
21633;BME280;48765;51.568;8.840;2022-11-14T02:11:33;98484.16;;;2.30;100.00
21633;BME280;48765;51.568;8.840;2022-11-14T02:14:01;98480.34;;;2.50;100.00
21633;BME280;48765;51.568;8.840;2022-11-14T02:16:28;98471.06;;;2.28;100.00
21633;BME280;48765;51.568;8.840;2022-11-14T02:18:57;98461.72;;;2.05;100.00
21633;BME280;48765;51.568;8.840;2022-11-14T02:21:25;98458.47;;;2.47;100.00
21633;BME280;48765;51.568;8.840;2022-11-14T02:23:52;98455.94;;;2.50;100.00
21633;BME280;48765;51.568;8.840;2022-11-14T02:26:20;98445.38;;;2.83;100.00
21633;BME280;48765;51.568;8.840;2022-11-14T02:28:47;98438.34;;;2.80;100.00
21633;BME280;48765;51.568;8.840;2022-11-14T02:31:15;98442.03;;;2.54;100.00
21633;BME280;48765;51.568;8.840;2022-11-14T02:33:41;98438.59;;;2.55;100.00
21633;BME280;48765;51.568;8.840;2022-11-14T02:36:09;98437.84;;;2.59;100.00
21633;BME280;48765;51.568;8.840;2022-11-14T02:38:37;98438.53;;;2.53;100.00
21633;BME280;48765;51.568;8.840;2022-11-14T02:41:04;98432.44;;;2.53;100.00
21633;BME280;48765;51.568;8.840;2022-11-14T02:43:31;98425.00;;;2.35;100.00
21633;BME280;48765;51.568;8.840;2022-11-14T02:45:57;98422.34;;;2.34;100.00
21633;BME280;48765;51.568;8.840;2022-11-14T02:48:24;98423.72;;;2.54;100.00
21633;BME280;48765;51.568;8.840;2022-11-14T02:50:51;98420.59;;;2.33;100.00
21633;BME280;48765;51.568;8.840;2022-11-14T02:53:18;98414.38;;;2.29;100.00
21633;BME280;48765;51.568;8.840;2022-11-14T02:55:46;98413.97;;;2.47;100.00
21633;BME280;48765;51.568;8.840;2022-11-14T02:58:13;98413.72;;;2.36;100.00
21633;BME280;48765;51.568;8.840;2022-11-14T03:00:40;98411.66;;;2.24;100.00
21633;BME280;48765;51.568;8.840;2022-11-14T03:03:07;98411.16;;;2.39;100.00
21633;BME280;48765;51.568;8.840;2022-11-14T03:05:36;98411.66;;;2.24;100.00
21633;BME280;48765;51.568;8.840;2022-11-14T03:08:03;98410.28;;;2.39;100.00
21633;BME280;48765;51.568;8.840;2022-11-14T03:10:30;98405.53;;;2.24;100.00
21633;BME280;48765;51.568;8.840;2022-11-14T03:12:58;98406.19;;;2.15;100.00
21633;BME280;48765;51.568;8.840;2022-11-14T03:15:25;98411.75;;;2.27;100.00
21633;BME280;48765;51.568;8.840;2022-11-14T03:17:52;98411.88;;;2.34;100.00
21633;BME280;48765;51.568;8.840;2022-11-14T03:20:19;98400.19;;;2.19;100.00
21633;BME280;48765;51.568;8.840;2022-11-14T03:22:45;98403.38;;;2.41;100.00
21633;BME280;48765;51.568;8.840;2022-11-14T03:25:12;98382.56;;;2.47;100.00
21633;BME280;48765;51.568;8.840;2022-11-14T03:27:39;98387.56;;;2.36;100.00
21633;BME280;48765;51.568;8.840;2022-11-14T03:30:08;98375.56;;;2.46;100.00
21633;BME280;48765;51.568;8.840;2022-11-14T03:32:35;98382.06;;;2.63;100.00
21633;BME280;48765;51.568;8.840;2022-11-14T03:35:02;98378.75;;;2.33;100.00
21633;BME280;48765;51.568;8.840;2022-11-14T03:37:29;98371.84;;;2.36;100.00
21633;BME280;48765;51.568;8.840;2022-11-14T03:39:56;98368.50;;;2.42;100.00
21633;BME280;48765;51.568;8.840;2022-11-14T03:42:22;98373.03;;;2.14;100.00
21633;BME280;48765;51.568;8.840;2022-11-14T03:44:49;98381.25;;;2.29;100.00
21633;BME280;48765;51.568;8.840;2022-11-14T03:47:17;98376.56;;;2.16;100.00
21633;BME280;48765;51.568;8.840;2022-11-14T03:49:44;98373.91;;;2.13;100.00
21633;BME280;48765;51.568;8.840;2022-11-14T03:52:11;98378.66;;;2.29;100.00
21633;BME280;48765;51.568;8.840;2022-11-14T03:54:37;98383.94;;;2.31;100.00
21633;BME280;48765;51.568;8.840;2022-11-14T03:57:05;98380.28;;;2.24;100.00
21633;BME280;48765;51.568;8.840;2022-11-14T03:59:31;98381.91;;;2.21;100.00
21633;BME280;48765;51.568;8.840;2022-11-14T04:01:58;98377.66;;;2.24;100.00
21633;BME280;48765;51.568;8.840;2022-11-14T04:04:26;98386.75;;;2.04;100.00
21633;BME280;48765;51.568;8.840;2022-11-14T04:06:53;98379.19;;;2.16;100.00
21633;BME280;48765;51.568;8.840;2022-11-14T04:09:20;98384.66;;;1.91;100.00
21633;BME280;48765;51.568;8.840;2022-11-14T04:11:47;98375.28;;;1.99;100.00
21633;BME280;48765;51.568;8.840;2022-11-14T04:14:14;98376.78;;;1.89;100.00
21633;BME280;48765;51.568;8.840;2022-11-14T04:16:41;98378.03;;;2.05;100.00
21633;BME280;48765;51.568;8.840;2022-11-14T04:19:07;98365.53;;;2.26;100.00
21633;BME280;48765;51.568;8.840;2022-11-14T04:21:36;98362.16;;;2.32;100.00
21633;BME280;48765;51.568;8.840;2022-11-14T04:24:02;98360.81;;;2.13;100.00
21633;BME280;48765;51.568;8.840;2022-11-14T04:26:29;98360.69;;;2.07;100.00
21633;BME280;48765;51.568;8.840;2022-11-14T04:28:56;98352.13;;;2.14;100.00
21633;BME280;48765;51.568;8.840;2022-11-14T04:31:23;98344.88;;;2.39;100.00
21633;BME280;48765;51.568;8.840;2022-11-14T04:33:49;98342.78;;;2.24;100.00
21633;BME280;48765;51.568;8.840;2022-11-14T04:36:16;98341.66;;;2.14;100.00
21633;BME280;48765;51.568;8.840;2022-11-14T04:38:44;98344.75;;;1.98;100.00
21633;BME280;48765;51.568;8.840;2022-11-14T04:41:11;98344.31;;;1.81;100.00
21633;BME280;48765;51.568;8.840;2022-11-14T04:43:38;98335.44;;;1.74;100.00
21633;BME280;48765;51.568;8.840;2022-11-14T04:46:05;98334.63;;;1.77;100.00
21633;BME280;48765;51.568;8.840;2022-11-14T04:48:32;98336.69;;;1.89;100.00
21633;BME280;48765;51.568;8.840;2022-11-14T04:50:58;98327.91;;;1.87;100.00
21633;BME280;48765;51.568;8.840;2022-11-14T04:53:25;98342.34;;;1.72;100.00
21633;BME280;48765;51.568;8.840;2022-11-14T04:55:53;98337.69;;;1.94;100.00
21633;BME280;48765;51.568;8.840;2022-11-14T04:58:20;98335.34;;;1.71;100.00
21633;BME280;48765;51.568;8.840;2022-11-14T05:00:47;98342.69;;;1.85;100.00
21633;BME280;48765;51.568;8.840;2022-11-14T05:03:14;98337.09;;;2.05;100.00
21633;BME280;48765;51.568;8.840;2022-11-14T05:05:41;98330.25;;;2.47;100.00
21633;BME280;48765;51.568;8.840;2022-11-14T05:08:08;98342.72;;;1.88;100.00
21633;BME280;48765;51.568;8.840;2022-11-14T05:10:34;98334.53;;;2.07;100.00
21633;BME280;48765;51.568;8.840;2022-11-14T05:13:02;98330.66;;;1.93;100.00
21633;BME280;48765;51.568;8.840;2022-11-14T05:15:29;98328.25;;;2.00;100.00
21633;BME280;48765;51.568;8.840;2022-11-14T05:17:56;98332.72;;;2.04;100.00
21633;BME280;48765;51.568;8.840;2022-11-14T05:20:23;98326.81;;;2.13;100.00
21633;BME280;48765;51.568;8.840;2022-11-14T05:22:51;98340.53;;;2.03;100.00
21633;BME280;48765;51.568;8.840;2022-11-14T05:25:18;98326.91;;;1.82;100.00
21633;BME280;48765;51.568;8.840;2022-11-14T05:27:45;98330.66;;;1.93;100.00
21633;BME280;48765;51.568;8.840;2022-11-14T05:30:14;98328.09;;;1.94;100.00
21633;BME280;48765;51.568;8.840;2022-11-14T05:32:41;98326.09;;;1.84;100.00
21633;BME280;48765;51.568;8.840;2022-11-14T05:35:08;98318.97;;;1.78;100.00
21633;BME280;48765;51.568;8.840;2022-11-14T05:37:34;98316.81;;;1.97;100.00
21633;BME280;48765;51.568;8.840;2022-11-14T05:40:02;98315.69;;;1.86;100.00
21633;BME280;48765;51.568;8.840;2022-11-14T05:42:29;98311.69;;;2.00;100.00
21633;BME280;48765;51.568;8.840;2022-11-14T05:44:55;98310.53;;;1.89;100.00
21633;BME280;48765;51.568;8.840;2022-11-14T05:47:24;98304.47;;;1.57;100.00
21633;BME280;48765;51.568;8.840;2022-11-14T05:49:50;98304.00;;;1.71;100.00
21633;BME280;48765;51.568;8.840;2022-11-14T05:52:17;98312.69;;;1.70;100.00
21633;BME280;48765;51.568;8.840;2022-11-14T05:54:44;98314.09;;;1.92;100.00
21633;BME280;48765;51.568;8.840;2022-11-14T05:57:11;98306.31;;;1.94;100.00
21633;BME280;48765;51.568;8.840;2022-11-14T05:59:38;98300.63;;;1.75;100.00
21633;BME280;48765;51.568;8.840;2022-11-14T06:02:05;98308.28;;;2.04;100.00
21633;BME280;48765;51.568;8.840;2022-11-14T06:04:33;98308.06;;;1.95;100.00
21633;BME280;48765;51.568;8.840;2022-11-14T06:07:00;98306.94;;;1.84;100.00
21633;BME280;48765;51.568;8.840;2022-11-14T06:09:27;98308.56;;;1.80;100.00
21633;BME280;48765;51.568;8.840;2022-11-14T06:11:54;98306.69;;;1.74;100.00
21633;BME280;48765;51.568;8.840;2022-11-14T06:14:20;98298.66;;;1.67;100.00
21633;BME280;48765;51.568;8.840;2022-11-14T06:16:47;98304.59;;;1.61;100.00
21633;BME280;48765;51.568;8.840;2022-11-14T06:19:14;98299.41;;;1.63;100.00
21633;BME280;48765;51.568;8.840;2022-11-14T06:21:42;98289.94;;;1.68;100.00
21633;BME280;48765;51.568;8.840;2022-11-14T06:24:09;98294.63;;;1.79;100.00
21633;BME280;48765;51.568;8.840;2022-11-14T06:26:36;98289.66;;;1.90;100.00
21633;BME280;48765;51.568;8.840;2022-11-14T06:29:02;98290.00;;;2.04;100.00
21633;BME280;48765;51.568;8.840;2022-11-14T06:31:29;98296.66;;;1.91;100.00
21633;BME280;48765;51.568;8.840;2022-11-14T06:33:56;98299.28;;;1.93;100.00
21633;BME280;48765;51.568;8.840;2022-11-14T06:36:23;98309.84;;;1.96;100.00
21633;BME280;48765;51.568;8.840;2022-11-14T06:38:51;98297.38;;;1.86;100.00
21633;BME280;48765;51.568;8.840;2022-11-14T06:41:19;98303.34;;;1.80;100.00
21633;BME280;48765;51.568;8.840;2022-11-14T06:43:46;98296.56;;;1.88;100.00
21633;BME280;48765;51.568;8.840;2022-11-14T06:46:14;98291.31;;;1.87;100.00
21633;BME280;48765;51.568;8.840;2022-11-14T06:48:42;98306.13;;;1.88;100.00
21633;BME280;48765;51.568;8.840;2022-11-14T06:51:09;98311.94;;;2.11;100.00
21633;BME280;48765;51.568;8.840;2022-11-14T06:53:36;98310.78;;;1.99;100.00
21633;BME280;48765;51.568;8.840;2022-11-14T06:56:06;98317.88;;;2.03;100.00
21633;BME280;48765;51.568;8.840;2022-11-14T06:58:33;98310.28;;;2.14;100.00
21633;BME280;48765;51.568;8.840;2022-11-14T07:01:04;98319.97;;;2.56;100.00
21633;BME280;48765;51.568;8.840;2022-11-14T07:03:31;98311.59;;;2.72;100.00
21633;BME280;48765;51.568;8.840;2022-11-14T07:05:58;98305.75;;;2.83;100.00
21633;BME280;48765;51.568;8.840;2022-11-14T07:08:25;98311.38;;;3.02;100.00
21633;BME280;48765;51.568;8.840;2022-11-14T07:10:52;98306.16;;;3.02;100.00
21633;BME280;48765;51.568;8.840;2022-11-14T07:13:20;98306.16;;;3.02;100.00
21633;BME280;48765;51.568;8.840;2022-11-14T07:15:50;98322.38;;;2.86;100.00
21633;BME280;48765;51.568;8.840;2022-11-14T07:18:17;98314.16;;;3.10;100.00
21633;BME280;48765;51.568;8.840;2022-11-14T07:20:43;98312.69;;;3.24;100.00
21633;BME280;48765;51.568;8.840;2022-11-14T07:23:10;98294.41;;;3.27;100.00
21633;BME280;48765;51.568;8.840;2022-11-14T07:25:37;98295.88;;;3.13;100.00
21633;BME280;48765;51.568;8.840;2022-11-14T07:28:04;98302.38;;;3.33;100.00
21633;BME280;48765;51.568;8.840;2022-11-14T07:30:33;98300.53;;;3.28;100.00
21633;BME280;48765;51.568;8.840;2022-11-14T07:32:59;98299.84;;;3.37;100.00
21633;BME280;48765;51.568;8.840;2022-11-14T07:35:27;98300.03;;;3.47;100.00
21633;BME280;48765;51.568;8.840;2022-11-14T07:37:59;98294.03;;;3.53;100.00
21633;BME280;48765;51.568;8.840;2022-11-14T07:40:26;98298.25;;;3.45;100.00
21633;BME280;48765;51.568;8.840;2022-11-14T07:42:55;98287.94;;;3.54;100.00
21633;BME280;48765;51.568;8.840;2022-11-14T07:45:22;98295.53;;;3.89;100.00
21633;BME280;48765;51.568;8.840;2022-11-14T07:47:54;98291.28;;;3.95;100.00
21633;BME280;48765;51.568;8.840;2022-11-14T07:50:21;98294.22;;;4.15;100.00
21633;BME280;48765;51.568;8.840;2022-11-14T07:52:49;98293.44;;;4.22;100.00
21633;BME280;48765;51.568;8.840;2022-11-14T07:55:15;98295.28;;;4.26;100.00
21633;BME280;48765;51.568;8.840;2022-11-14T07:57:42;98292.91;;;4.43;100.00
21633;BME280;48765;51.568;8.840;2022-11-14T08:00:10;98286.66;;;4.33;100.00
21633;BME280;48765;51.568;8.840;2022-11-14T08:02:37;98293.78;;;4.44;100.00
21633;BME280;48765;51.568;8.840;2022-11-14T08:05:05;98297.50;;;4.58;100.00
21633;BME280;48765;51.568;8.840;2022-11-14T08:07:32;98283.50;;;4.59;100.00
21633;BME280;48765;51.568;8.840;2022-11-14T08:09:59;98282.75;;;4.69;100.00
21633;BME280;48765;51.568;8.840;2022-11-14T08:12:26;98284.69;;;4.82;100.00
21633;BME280;48765;51.568;8.840;2022-11-14T08:14:52;98285.69;;;4.92;100.00
21633;BME280;48765;51.568;8.840;2022-11-14T08:17:19;98276.88;;;4.88;100.00
21633;BME280;48765;51.568;8.840;2022-11-14T08:19:46;98277.00;;;4.98;100.00
21633;BME280;48765;51.568;8.840;2022-11-14T08:22:14;98273.63;;;5.08;100.00
21633;BME280;48765;51.568;8.840;2022-11-14T08:24:41;98268.41;;;5.11;100.00
21633;BME280;48765;51.568;8.840;2022-11-14T08:27:08;98270.00;;;4.95;100.00
21633;BME280;48765;51.568;8.840;2022-11-14T08:29:35;98262.28;;;5.10;100.00
21633;BME280;48765;51.568;8.840;2022-11-14T08:32:01;98271.16;;;5.19;100.00
21633;BME280;48765;51.568;8.840;2022-11-14T08:34:28;98272.97;;;5.24;100.00
21633;BME280;48765;51.568;8.840;2022-11-14T08:36:55;98271.38;;;5.38;100.00
21633;BME280;48765;51.568;8.840;2022-11-14T08:39:24;98268.78;;;5.42;100.00
21633;BME280;48765;51.568;8.840;2022-11-14T08:41:50;98271.38;;;5.40;100.00
21633;BME280;48765;51.568;8.840;2022-11-14T08:44:17;98275.03;;;5.54;100.00
21633;BME280;48765;51.568;8.840;2022-11-14T08:46:44;98275.78;;;5.43;100.00
21633;BME280;48765;51.568;8.840;2022-11-14T08:49:11;98269.72;;;5.50;100.00
21633;BME280;48765;51.568;8.840;2022-11-14T08:51:37;98276.81;;;5.55;100.00
21633;BME280;48765;51.568;8.840;2022-11-14T08:54:04;98266.25;;;5.51;100.00
21633;BME280;48765;51.568;8.840;2022-11-14T08:56:33;98267.22;;;5.62;100.00
21633;BME280;48765;51.568;8.840;2022-11-14T08:59:01;98262.94;;;5.73;100.00
21633;BME280;48765;51.568;8.840;2022-11-14T09:01:28;98265.63;;;5.79;100.00
21633;BME280;48765;51.568;8.840;2022-11-14T09:03:56;98264.72;;;5.76;100.00
21633;BME280;48765;51.568;8.840;2022-11-14T09:06:23;98262.00;;;5.65;100.00
21633;BME280;48765;51.568;8.840;2022-11-14T09:08:50;98256.00;;;5.81;100.00
21633;BME280;48765;51.568;8.840;2022-11-14T09:11:17;98251.69;;;5.89;100.00
21633;BME280;48765;51.568;8.840;2022-11-14T09:13:45;98249.13;;;5.97;100.00
21633;BME280;48765;51.568;8.840;2022-11-14T09:16:12;98250.09;;;6.04;100.00
21633;BME280;48765;51.568;8.840;2022-11-14T09:18:39;98248.34;;;6.06;100.00
21633;BME280;48765;51.568;8.840;2022-11-14T09:21:06;98237.81;;;6.06;100.00
21633;BME280;48765;51.568;8.840;2022-11-14T09:23:34;98239.59;;;6.10;100.00
21633;BME280;48765;51.568;8.840;2022-11-14T09:26:02;98246.63;;;6.11;100.00
21633;BME280;48765;51.568;8.840;2022-11-14T09:28:29;98243.09;;;6.09;100.00
21633;BME280;48765;51.568;8.840;2022-11-14T09:31:00;98246.72;;;6.23;100.00
21633;BME280;48765;51.568;8.840;2022-11-14T09:33:27;98244.06;;;6.17;100.00
21633;BME280;48765;51.568;8.840;2022-11-14T09:35:55;98254.66;;;6.26;100.00
21633;BME280;48765;51.568;8.840;2022-11-14T09:38:22;98245.94;;;6.38;100.00
21633;BME280;48765;51.568;8.840;2022-11-14T09:40:51;98250.28;;;6.34;100.00
21633;BME280;48765;51.568;8.840;2022-11-14T09:43:30;98239.81;;;6.40;100.00
21633;BME280;48765;51.568;8.840;2022-11-14T09:46:01;98248.53;;;6.32;100.00
21633;BME280;48765;51.568;8.840;2022-11-14T09:48:28;98255.69;;;6.53;100.00
21633;BME280;48765;51.568;8.840;2022-11-14T09:51:01;98259.25;;;6.61;100.00
21633;BME280;48765;51.568;8.840;2022-11-14T09:53:30;98248.66;;;6.52;100.00
21633;BME280;48765;51.568;8.840;2022-11-14T09:55:58;98260.94;;;6.50;100.00
21633;BME280;48765;51.568;8.840;2022-11-14T09:58:25;98280.22;;;6.47;100.00
21633;BME280;48765;51.568;8.840;2022-11-14T10:00:53;98275.91;;;6.55;100.00
21633;BME280;48765;51.568;8.840;2022-11-14T10:03:28;98270.69;;;6.68;100.00
21633;BME280;48765;51.568;8.840;2022-11-14T10:06:06;98248.72;;;6.62;100.00
21633;BME280;48765;51.568;8.840;2022-11-14T10:08:43;98255.75;;;6.66;100.00
21633;BME280;48765;51.568;8.840;2022-11-14T10:11:15;98250.53;;;6.77;100.00
21633;BME280;48765;51.568;8.840;2022-11-14T10:13:54;98238.31;;;6.82;100.00
21633;BME280;48765;51.568;8.840;2022-11-14T10:16:27;98276.09;;;6.87;100.00
21633;BME280;48765;51.568;8.840;2022-11-14T10:19:06;98265.53;;;6.90;100.00
21633;BME280;48765;51.568;8.840;2022-11-14T10:21:47;98273.47;;;6.94;100.00
21633;BME280;48765;51.568;8.840;2022-11-14T10:24:23;98260.31;;;6.98;100.00
21633;BME280;48765;51.568;8.840;2022-11-14T10:26:52;98262.16;;;7.17;100.00
21633;BME280;48765;51.568;8.840;2022-11-14T10:29:30;98260.41;;;7.24;100.00
21633;BME280;48765;51.568;8.840;2022-11-14T10:32:00;98266.56;;;7.23;100.00
21633;BME280;48765;51.568;8.840;2022-11-14T10:34:31;98256.00;;;7.17;100.00
21633;BME280;48765;51.568;8.840;2022-11-14T10:37:01;98249.81;;;7.10;100.00
21633;BME280;48765;51.568;8.840;2022-11-14T10:39:33;98243.75;;;7.31;100.00
21633;BME280;48765;51.568;8.840;2022-11-14T10:42:06;98243.78;;;7.43;100.00
21633;BME280;48765;51.568;8.840;2022-11-14T10:44:35;98227.84;;;7.10;100.00
21633;BME280;48765;51.568;8.840;2022-11-14T10:47:05;98224.34;;;7.14;100.00
21633;BME280;48765;51.568;8.840;2022-11-14T10:49:34;98236.66;;;7.12;100.00
21633;BME280;48765;51.568;8.840;2022-11-14T10:52:08;98231.44;;;7.30;100.00
21633;BME280;48765;51.568;8.840;2022-11-14T10:54:38;98243.75;;;7.31;100.00
21633;BME280;48765;51.568;8.840;2022-11-14T10:57:12;98250.78;;;7.35;100.00
21633;BME280;48765;51.568;8.840;2022-11-14T10:59:40;98249.00;;;7.28;100.00
21633;BME280;48765;51.568;8.840;2022-11-14T11:02:08;98245.47;;;7.20;100.00
21633;BME280;48765;51.568;8.840;2022-11-14T11:04:37;98234.06;;;7.21;100.00
21633;BME280;48765;51.568;8.840;2022-11-14T11:07:21;98236.75;;;7.39;100.00
21633;BME280;48765;51.568;8.840;2022-11-14T11:10:05;98256.09;;;7.46;100.00
21633;BME280;48765;51.568;8.840;2022-11-14T11:12:50;98260.50;;;7.53;100.00
21633;BME280;48765;51.568;8.840;2022-11-14T11:15:19;98242.91;;;7.49;100.00
21633;BME280;48765;51.568;8.840;2022-11-14T11:17:52;98242.91;;;7.52;100.00
21633;BME280;48765;51.568;8.840;2022-11-14T11:20:23;98244.69;;;7.58;100.00
21633;BME280;48765;51.568;8.840;2022-11-14T11:22:56;98247.31;;;7.55;100.00
21633;BME280;48765;51.568;8.840;2022-11-14T11:25:27;98248.22;;;7.63;100.00
21633;BME280;48765;51.568;8.840;2022-11-14T11:28:05;98250.84;;;7.75;100.00
21633;BME280;48765;51.568;8.840;2022-11-14T11:30:32;98255.25;;;7.81;100.00
21633;BME280;48765;51.568;8.840;2022-11-14T11:33:13;98257.00;;;7.85;100.00
21633;BME280;48765;51.568;8.840;2022-11-14T11:35:41;98254.38;;;7.89;100.00
21633;BME280;48765;51.568;8.840;2022-11-14T11:38:09;98257.03;;;7.96;100.00
21633;BME280;48765;51.568;8.840;2022-11-14T11:40:37;98243.81;;;7.99;100.00
21633;BME280;48765;51.568;8.840;2022-11-14T11:43:08;98243.84;;;8.14;100.00
21633;BME280;48765;51.568;8.840;2022-11-14T11:45:37;98235.94;;;8.09;100.00
21633;BME280;48765;51.568;8.840;2022-11-14T11:48:07;98225.34;;;8.03;100.00
21633;BME280;48765;51.568;8.840;2022-11-14T11:50:39;98237.66;;;8.09;100.00
21633;BME280;48765;51.568;8.840;2022-11-14T11:53:11;98235.03;;;8.12;100.00
21633;BME280;48765;51.568;8.840;2022-11-14T11:55:42;98246.47;;;8.15;100.00
21633;BME280;48765;51.568;8.840;2022-11-14T11:58:11;98238.53;;;8.22;100.00
21633;BME280;48765;51.568;8.840;2022-11-14T12:00:42;98236.75;;;8.31;100.00
21633;BME280;48765;51.568;8.840;2022-11-14T12:03:09;98237.66;;;8.33;100.00
21633;BME280;48765;51.568;8.840;2022-11-14T12:05:40;98230.59;;;8.28;100.00
21633;BME280;48765;51.568;8.840;2022-11-14T12:08:12;98236.81;;;8.19;100.00
21633;BME280;48765;51.568;8.840;2022-11-14T12:10:41;98237.66;;;8.27;100.00
21633;BME280;48765;51.568;8.840;2022-11-14T12:15:55;98224.47;;;8.33;100.00
21633;BME280;48765;51.568;8.840;2022-11-14T12:21:11;98208.63;;;8.36;100.00
21633;BME280;48765;51.568;8.840;2022-11-14T12:23:55;98200.69;;;8.36;100.00
21633;BME280;48765;51.568;8.840;2022-11-14T12:26:41;98196.25;;;8.35;100.00
21633;BME280;48765;51.568;8.840;2022-11-14T12:29:19;98195.38;;;8.35;100.00
21633;BME280;48765;51.568;8.840;2022-11-14T12:31:52;98198.94;;;8.48;100.00
21633;BME280;48765;51.568;8.840;2022-11-14T12:34:23;98202.41;;;8.51;100.00
21633;BME280;48765;51.568;8.840;2022-11-14T12:36:51;98210.34;;;8.53;100.00
21633;BME280;48765;51.568;8.840;2022-11-14T12:39:23;98202.44;;;8.48;100.00
21633;BME280;48765;51.568;8.840;2022-11-14T12:41:53;98207.69;;;8.56;100.00
21633;BME280;48765;51.568;8.840;2022-11-14T12:44:34;98207.69;;;8.59;100.00
21633;BME280;48765;51.568;8.840;2022-11-14T12:47:11;98201.53;;;8.57;100.00
21633;BME280;48765;51.568;8.840;2022-11-14T12:49:39;98199.75;;;8.62;100.00
21633;BME280;48765;51.568;8.840;2022-11-14T12:55:18;98196.19;;;8.69;100.00
21633;BME280;48765;51.568;8.840;2022-11-14T12:58:05;98181.22;;;8.73;100.00
21633;BME280;48765;51.568;8.840;2022-11-14T13:00:33;98173.28;;;8.77;100.00
21633;BME280;48765;51.568;8.840;2022-11-14T13:05:54;98166.16;;;8.91;100.00
21633;BME280;48765;51.568;8.840;2022-11-14T13:08:32;98167.88;;;8.99;100.00
21633;BME280;48765;51.568;8.840;2022-11-14T13:14:07;98168.66;;;9.19;100.00
21633;BME280;48765;51.568;8.840;2022-11-14T13:16:51;98162.47;;;9.23;100.00
21633;BME280;48765;51.568;8.840;2022-11-14T13:19:37;98159.84;;;9.18;100.00
21633;BME280;48765;51.568;8.840;2022-11-14T13:22:35;98165.09;;;9.25;100.00
21633;BME280;48765;51.568;8.840;2022-11-14T13:25:17;98143.94;;;9.21;100.00
21633;BME280;48765;51.568;8.840;2022-11-14T13:27:44;98139.56;;;9.20;100.00
21633;BME280;48765;51.568;8.840;2022-11-14T13:30:13;98136.88;;;9.22;100.00